< < Back
Terminal Aerodrome Forecast


Current Version              Previous Versions:   1  2  3  4  5  6  7  8  9  

Terminal Aerodrome Forecast

358
FTUS42 KJAX 221700 AAB
TAFSSI
TAF AMD
KSSI 221713Z 2217/2312 01011KT P6SM SKC
     FM230000 02006KT P6SM SKC=



Latest METAR

677
SAUS70 KWBC 222300 RRD
MTRSSI
METAR KSSI 222253Z AUTO 36004KT 10SM CLR 18/08 A3003 RMK AO2 SLP167
T01780078


USA.gov is the U.S. government's official web portal to all federal, state and local government web resources and services.